createdAt,value
2023-03-22T00:02:58.666Z,12.35
2023-03-22T00:06:01.026Z,12.16
2023-03-22T00:09:03.908Z,12.12
2023-03-22T00:12:06.482Z,12.20
2023-03-22T00:15:11.343Z,12.17
2023-03-22T00:18:14.540Z,12.21
2023-03-22T00:21:17.951Z,12.18
2023-03-22T00:24:21.186Z,12.25
2023-03-22T00:27:23.520Z,12.31
2023-03-22T00:30:25.958Z,12.38
2023-03-22T00:33:32.236Z,12.37
2023-03-22T00:36:34.642Z,12.26
2023-03-22T00:39:37.003Z,12.30
2023-03-22T00:42:40.837Z,12.22
2023-03-22T00:45:43.292Z,12.15
2023-03-22T00:48:46.352Z,12.10
2023-03-22T00:51:48.858Z,12.05
2023-03-22T00:54:51.610Z,11.93
2023-03-22T00:57:54.557Z,11.91
2023-03-22T01:00:56.987Z,11.79
2023-03-22T01:03:59.401Z,11.79
2023-03-22T01:07:07.907Z,11.91
2023-03-22T01:10:12.452Z,11.92
2023-03-22T01:13:16.417Z,11.93
2023-03-22T01:16:20.165Z,11.93
2023-03-22T01:19:27.456Z,11.81
2023-03-22T01:22:29.779Z,11.64
2023-03-22T01:25:32.237Z,11.63
2023-03-22T01:28:34.600Z,11.45
2023-03-22T01:31:36.902Z,11.08
2023-03-22T01:34:39.214Z,11.16
2023-03-22T01:37:42.015Z,11.02
2023-03-22T01:40:44.931Z,11.00
2023-03-22T01:44:14.306Z,10.96
2023-03-22T01:47:16.735Z,10.81
2023-03-22T01:50:19.850Z,10.68
2023-03-22T01:53:25.312Z,10.68
2023-03-22T01:56:32.796Z,10.61
2023-03-22T01:59:35.766Z,10.58
2023-03-22T02:02:53.428Z,10.18
2023-03-22T02:06:02.166Z,10.38
2023-03-22T02:09:06.846Z,10.71
2023-03-22T02:12:34.314Z,10.86
2023-03-22T02:15:56.466Z,10.76
2023-03-22T02:19:29.191Z,10.77
2023-03-22T02:22:58.388Z,10.73
2023-03-22T02:26:28.194Z,10.73
2023-03-22T02:29:45.308Z,10.68
2023-03-22T02:33:08.645Z,10.40
2023-03-22T02:36:14.669Z,10.54
2023-03-22T02:39:26.729Z,10.54
2023-03-22T02:42:43.876Z,10.29
2023-03-22T02:46:08.961Z,10.30
2023-03-22T02:49:37.052Z,10.23
2023-03-22T02:52:43.369Z,10.10
2023-03-22T02:56:15.099Z,9.90
2023-03-22T02:59:18.399Z,10.01
2023-03-22T03:02:22.018Z,9.96
2023-03-22T03:05:25.378Z,9.85
2023-03-22T03:08:28.668Z,10.01
2023-03-22T03:11:32.471Z,10.02
2023-03-22T03:14:35.396Z,10.12
2023-03-22T03:17:44.229Z,10.18
2023-03-22T03:20:54.523Z,10.17
2023-03-22T03:24:21.323Z,10.10
2023-03-22T03:27:29.433Z,10.10
2023-03-22T03:30:40.959Z,10.26
2023-03-22T03:33:57.591Z,10.29
2023-03-22T03:37:39.868Z,10.41
2023-03-22T03:40:46.025Z,10.51
2023-03-22T03:43:49.095Z,10.46
2023-03-22T03:46:52.619Z,10.36
2023-03-22T03:49:54.956Z,10.48
2023-03-22T03:52:57.971Z,10.48
2023-03-22T03:56:00.350Z,10.56
2023-03-22T03:59:09.653Z,10.49
2023-03-22T04:02:12.123Z,10.53
2023-03-22T04:05:14.649Z,10.60
2023-03-22T04:08:17.150Z,10.63
2023-03-22T04:11:20.579Z,10.68
2023-03-22T04:14:27.295Z,11.31
2023-03-22T04:17:32.225Z,11.75
2023-03-22T04:20:36.482Z,11.46
2023-03-22T04:23:38.750Z,11.14
2023-03-22T04:26:41.377Z,10.98
2023-03-22T04:29:51.123Z,10.86
2023-03-22T04:33:15.319Z,10.67
2023-03-22T04:36:53.145Z,10.48
2023-03-22T04:40:16.592Z,11.47
2023-03-22T04:43:34.874Z,11.80
2023-03-22T04:46:39.816Z,11.49
2023-03-22T04:49:42.927Z,11.19
2023-03-22T04:52:48.554Z,10.79
2023-03-22T04:55:50.899Z,10.66
2023-03-22T04:58:54.020Z,10.67
2023-03-22T05:01:56.421Z,10.53
2023-03-22T05:05:01.839Z,10.55
2023-03-22T05:08:14.414Z,10.53
2023-03-22T05:11:20.412Z,10.40
2023-03-22T05:14:35.290Z,10.45
2023-03-22T05:17:38.392Z,10.47
2023-03-22T05:20:42.156Z,10.52
2023-03-22T05:23:52.726Z,10.50
2023-03-22T05:26:55.612Z,10.50
2023-03-22T05:30:02.309Z,10.55
2023-03-22T05:33:21.626Z,10.81
2023-03-22T05:36:29.760Z,10.96
2023-03-22T05:39:55.319Z,11.14
2023-03-22T05:43:04.033Z,11.30
2023-03-22T05:46:11.748Z,11.33
2023-03-22T05:49:26.866Z,11.31
2023-03-22T05:52:30.417Z,11.34
2023-03-22T05:56:02.022Z,11.94
2023-03-22T05:59:07.701Z,12.54
2023-03-22T06:02:10.862Z,12.73
2023-03-22T06:05:14.501Z,12.86
2023-03-22T06:08:17.567Z,13.05
2023-03-22T06:11:22.060Z,13.14
2023-03-22T06:14:25.258Z,13.08
2023-03-22T06:17:47.906Z,13.35
2023-03-22T06:20:55.014Z,13.55
2023-03-22T06:23:58.691Z,13.39
2023-03-22T06:27:01.283Z,13.57
2023-03-22T06:30:04.471Z,13.66
2023-03-22T06:33:13.458Z,13.56
2023-03-22T06:36:25.156Z,13.74
2023-03-22T06:39:41.101Z,13.74
2023-03-22T06:42:44.755Z,14.01
2023-03-22T06:45:50.048Z,14.08
2023-03-22T06:48:57.690Z,14.30
2023-03-22T06:52:00.018Z,14.41
2023-03-22T06:55:02.969Z,14.78
2023-03-22T06:58:05.677Z,15.27
2023-03-22T07:01:08.185Z,15.75
2023-03-22T07:04:11.919Z,16.04
2023-03-22T07:07:14.775Z,16.30
2023-03-22T07:10:20.398Z,16.15
2023-03-22T07:13:25.103Z,16.44
2023-03-22T07:16:32.322Z,16.17
2023-03-22T07:19:37.231Z,16.10
2023-03-22T07:22:43.810Z,15.91
2023-03-22T07:25:47.946Z,15.91
2023-03-22T07:29:11.241Z,16.05
2023-03-22T07:32:14.431Z,16.09
2023-03-22T07:35:36.823Z,16.65
2023-03-22T07:38:40.524Z,16.70
2023-03-22T07:41:48.506Z,16.20
2023-03-22T07:44:59.838Z,16.16
2023-03-22T07:48:02.144Z,16.31
2023-03-22T07:51:23.021Z,16.30
2023-03-22T07:54:33.501Z,16.51
2023-03-22T07:57:38.838Z,16.36
2023-03-22T08:00:41.616Z,16.35
2023-03-22T08:04:02.980Z,16.29
2023-03-22T08:07:18.633Z,16.71
2023-03-22T08:10:21.401Z,16.90
2023-03-22T08:13:24.113Z,17.11
2023-03-22T08:16:26.809Z,17.41
2023-03-22T08:19:31.267Z,17.66
2023-03-22T08:22:35.252Z,17.75
2023-03-22T08:25:56.579Z,17.71
2023-03-22T08:28:59.826Z,17.73
2023-03-22T08:32:05.946Z,17.42
2023-03-22T08:35:09.113Z,17.09
2023-03-22T08:38:11.729Z,17.22
2023-03-22T08:41:21.482Z,17.05
2023-03-22T08:44:23.968Z,17.10
2023-03-22T08:47:26.407Z,17.34
2023-03-22T08:50:35.075Z,17.58
2023-03-22T08:53:48.160Z,17.68
2023-03-22T08:57:10.385Z,17.42
2023-03-22T09:00:26.099Z,17.45
2023-03-22T09:03:41.535Z,17.64
2023-03-22T09:06:47.116Z,17.59
2023-03-22T09:09:50.577Z,17.56
2023-03-22T09:12:53.340Z,17.62
2023-03-22T09:15:55.759Z,17.48
2023-03-22T09:19:02.216Z,17.70
2023-03-22T09:22:04.808Z,17.92
2023-03-22T09:25:15.950Z,18.40
2023-03-22T09:28:22.021Z,18.54
2023-03-22T09:31:24.406Z,18.51
2023-03-22T09:34:38.152Z,18.45
2023-03-22T09:37:42.393Z,18.58
2023-03-22T09:41:00.548Z,19.02
2023-03-22T09:44:08.522Z,19.79
2023-03-22T09:47:43.969Z,19.78
2023-03-22T09:50:50.832Z,19.91
2023-03-22T09:53:53.409Z,19.98
2023-03-22T09:57:05.429Z,20.01
2023-03-22T10:00:47.837Z,19.96
2023-03-22T10:04:05.337Z,19.66
2023-03-22T10:07:22.687Z,20.25
2023-03-22T10:10:26.865Z,19.91
2023-03-22T10:13:38.918Z,19.86
2023-03-22T10:16:41.402Z,19.75
2023-03-22T10:20:28.973Z,19.72
2023-03-22T10:23:49.568Z,19.40
2023-03-22T10:26:52.058Z,19.47
2023-03-22T10:29:59.847Z,19.61
2023-03-22T10:33:04.771Z,19.45
2023-03-22T10:36:11.818Z,19.32
2023-03-22T10:39:32.476Z,19.29
2023-03-22T10:42:36.972Z,18.78
2023-03-22T10:45:40.079Z,18.55
2023-03-22T10:48:44.998Z,18.41
2023-03-22T10:51:49.902Z,18.39
2023-03-22T10:54:52.231Z,18.34
2023-03-22T10:58:13.057Z,18.07
2023-03-22T11:01:24.814Z,17.97
2023-03-22T11:04:31.506Z,17.98
2023-03-22T11:07:33.884Z,18.03
2023-03-22T11:10:36.486Z,17.93
2023-03-22T11:13:38.842Z,17.75
2023-03-22T11:16:44.717Z,17.09
2023-03-22T11:19:56.555Z,17.03
2023-03-22T11:23:02.655Z,16.95
2023-03-22T11:26:11.475Z,17.06
2023-03-22T11:29:18.958Z,17.06
2023-03-22T11:32:21.388Z,16.96
2023-03-22T11:35:28.202Z,16.86
2023-03-22T11:38:30.553Z,16.92
2023-03-22T11:41:36.478Z,16.39
2023-03-22T11:44:44.430Z,16.21
2023-03-22T11:47:46.898Z,16.44
2023-03-22T11:50:49.588Z,16.47
2023-03-22T11:54:09.478Z,16.45
2023-03-22T11:57:17.396Z,16.65
2023-03-22T12:00:28.751Z,16.63
2023-03-22T12:09:51.534Z,16.74
2023-03-22T12:49:42.103Z,17.54
2023-03-22T12:52:50.462Z,17.68
2023-03-22T12:55:53.056Z,17.84
2023-03-22T12:58:59.554Z,17.92
2023-03-22T13:02:17.365Z,17.90
2023-03-22T13:05:19.815Z,17.95
2023-03-22T13:08:23.016Z,17.61
2023-03-22T13:11:25.594Z,17.43
2023-03-22T13:14:53.179Z,17.59
2023-03-22T13:17:56.862Z,17.80
2023-03-22T13:21:14.702Z,17.78
2023-03-22T13:24:16.999Z,18.05
2023-03-22T13:27:19.333Z,18.14
2023-03-22T13:30:24.585Z,18.26
2023-03-22T13:33:32.380Z,18.07
2023-03-22T13:36:37.457Z,17.89
2023-03-22T13:39:40.906Z,17.95
2023-03-22T13:42:43.319Z,18.23
2023-03-22T13:46:01.279Z,17.97
2023-03-22T13:49:04.314Z,18.26
2023-03-22T13:52:08.405Z,18.11
2023-03-22T13:55:41.235Z,18.14
2023-03-22T13:58:46.795Z,18.34
2023-03-22T14:02:07.687Z,18.46
2023-03-22T14:05:16.556Z,18.48
2023-03-22T14:08:25.736Z,18.46
2023-03-22T14:12:06.176Z,18.32
2023-03-22T14:15:09.165Z,18.37
2023-03-22T14:18:11.413Z,18.40
2023-03-22T14:21:18.812Z,18.31
